Time;durP1;ratioP1;P1;durP2;ratioP2;P2;SDS_P1;SDS_P2;PMS_P1;PMS_P2;Temp;Humidity;BMP_temperature;BMP_pressure;BME280_temperature;BME280_humidity;BME280_pressure;Samples;Min_cycle;Max_cycle;Signal;HPM_P1;HPM_P2
2022/11/10 00:01:07;;;;;;;5.10;2.77;;;;;;;8.59;100.00;100670.13;4875577;29;20651;-82
2022/11/10 00:03:35;;;;;;;3.87;2.83;;;;;;;8.59;100.00;100675.38;4909111;29;20031;-83
2022/11/10 00:06:02;;;;;;;6.82;3.28;;;;;;;8.69;100.00;100674.38;4910588;29;20044;-83
2022/11/10 00:08:29;;;;;;;4.10;3.07;;;;;;;8.66;100.00;100671.75;4897216;29;20052;-85
2022/11/10 00:10:56;;;;;;;3.60;2.78;;;;;;;8.67;100.00;100679.66;4874357;29;20127;-83
2022/11/10 00:13:25;;;;;;;4.35;3.00;;;;;;;8.79;100.00;100672.50;4880391;29;20573;-83
2022/11/10 00:18:38;;;;;;;7.22;3.45;;;;;;;8.88;100.00;100685.53;4891329;29;20044;-83
2022/11/10 00:21:07;;;;;;;5.10;2.88;;;;;;;8.86;100.00;100690.84;4901429;29;20048;-82
2022/11/10 00:23:34;;;;;;;4.60;3.47;;;;;;;9.02;100.00;100688.88;4916901;29;20035;-83
2022/11/10 00:26:02;;;;;;;7.38;3.20;;;;;;;9.08;100.00;100691.44;4903414;29;20654;-83
2022/11/10 00:28:30;;;;;;;4.03;2.88;;;;;;;9.06;100.00;100701.09;4890046;29;20054;-83
2022/11/10 00:30:57;;;;;;;4.85;3.10;;;;;;;9.08;100.00;100699.34;4877244;29;20052;-83
2022/11/10 00:33:24;;;;;;;3.45;3.03;;;;;;;9.09;100.00;100701.09;4860940;29;20044;-82
2022/11/10 00:35:51;;;;;;;4.68;3.10;;;;;;;9.06;100.00;100700.22;4879737;29;20074;-80
2022/11/10 00:38:18;;;;;;;5.60;3.30;;;;;;;9.04;100.00;100697.63;4896406;29;20040;-82
2022/11/10 00:40:44;;;;;;;3.25;2.72;;;;;;;9.01;100.00;100700.31;4883854;29;20040;-81
2022/11/10 00:43:11;;;;;;;4.18;3.00;;;;;;;9.01;100.00;100693.28;4882475;29;20120;-81
2022/11/10 00:45:41;;;;;;;9.80;4.45;;;;;;;9.06;100.00;100703.75;4893867;29;20047;-81
2022/11/10 00:48:08;;;;;;;9.68;4.70;;;;;;;9.07;100.00;100704.59;4882669;29;20471;-81
2022/11/10 00:50:35;;;;;;;5.97;3.42;;;;;;;9.15;100.00;100710.66;4882049;29;20108;-80
2022/11/10 00:53:01;;;;;;;6.40;3.53;;;;;;;9.14;100.00;100720.31;4887073;29;20050;-81
2022/11/10 00:55:28;;;;;;;5.18;2.75;;;;;;;9.12;100.00;100711.56;4899291;29;20047;-81
2022/11/10 00:57:57;;;;;;;6.05;3.25;;;;;;;9.07;100.00;100718.66;4889807;29;20044;-81
2022/11/10 01:00:24;;;;;;;7.88;3.65;;;;;;;9.06;100.00;100721.31;4874611;29;20055;-82
2022/11/10 01:02:50;;;;;;;4.28;3.00;;;;;;;9.07;100.00;100725.69;4979939;23;21215;-82
2022/11/10 01:05:17;;;;;;;7.93;3.72;;;;;;;9.17;100.00;100720.31;4866705;29;20036;-84
2022/11/10 01:07:44;;;;;;;5.47;3.58;;;;;;;9.13;100.00;100713.31;4861174;29;20056;-85
2022/11/10 01:10:11;;;;;;;6.43;3.10;;;;;;;9.12;100.00;100718.59;4872235;29;20046;-81
2022/11/10 01:12:37;;;;;;;4.15;3.15;;;;;;;9.10;100.00;100715.13;4855740;29;20044;-82
2022/11/10 01:15:05;;;;;;;7.75;3.97;;;;;;;9.17;100.00;100717.66;4875817;29;20033;-85
2022/11/10 01:17:32;;;;;;;12.32;3.58;;;;;;;9.21;100.00;100719.34;4854723;29;20080;-84
2022/11/10 01:19:58;;;;;;;6.55;3.10;;;;;;;9.23;100.00;100724.59;4878179;29;20056;-84
2022/11/10 01:22:25;;;;;;;4.55;2.60;;;;;;;9.18;100.00;100724.66;4878410;29;20044;-81
2022/11/10 01:24:52;;;;;;;6.47;3.70;;;;;;;9.28;100.00;100728.91;4893876;29;20040;-82
2022/11/10 01:27:18;;;;;;;5.32;3.70;;;;;;;9.27;100.00;100736.84;4892998;29;20406;-85
2022/11/10 01:29:45;;;;;;;5.22;2.63;;;;;;;9.30;100.00;100734.16;4851837;29;20783;-82
2022/11/10 01:32:11;;;;;;;4.82;2.75;;;;;;;9.25;100.00;100731.63;4894679;29;20040;-82
2022/11/10 01:34:38;;;;;;;4.95;2.88;;;;;;;9.18;100.00;100729.06;4854722;29;20037;-85
2022/11/10 01:37:05;;;;;;;6.97;3.50;;;;;;;9.21;100.00;100737.81;4869049;29;20528;-83
2022/11/10 01:39:31;;;;;;;5.40;2.95;;;;;;;9.10;100.00;100745.00;4849776;29;21593;-82
2022/11/10 01:41:58;;;;;;;5.97;3.33;;;;;;;9.12;100.00;100745.84;4870516;29;20122;-84
2022/11/10 01:44:25;;;;;;;5.20;3.00;;;;;;;9.13;100.00;100749.34;4855364;29;20044;-84
2022/11/10 01:46:52;;;;;;;4.13;2.95;;;;;;;9.15;100.00;100751.06;4893783;29;20274;-85
2022/11/10 01:49:22;;;;;;;5.00;3.22;;;;;;;9.17;100.00;100746.66;4871554;29;20426;-84
2022/11/10 01:51:57;;;;;;;6.30;3.08;;;;;;;9.25;100.00;100762.38;4876575;29;20052;-84
2022/11/10 01:54:26;;;;;;;5.53;2.75;;;;;;;9.16;100.00;100765.97;4893647;29;20634;-83
2022/11/10 01:56:58;;;;;;;7.90;3.40;;;;;;;9.22;100.00;100754.47;4870301;29;20043;-83
2022/11/10 01:59:29;;;;;;;6.03;2.92;;;;;;;9.20;100.00;100764.19;4877428;29;20045;-83
2022/11/10 02:02:02;;;;;;;8.23;3.35;;;;;;;9.24;100.00;100771.16;4879728;29;20056;-84
2022/11/10 02:04:29;;;;;;;4.93;3.10;;;;;;;9.28;100.00;100775.50;4855301;29;20052;-83
2022/11/10 02:06:57;;;;;;;4.43;2.88;;;;;;;9.22;100.00;100776.44;4871823;29;20051;-82
2022/11/10 02:09:24;;;;;;;6.30;3.38;;;;;;;9.29;100.00;100779.88;4893436;29;20052;-84
2022/11/10 02:11:53;;;;;;;9.75;3.20;;;;;;;9.28;100.00;100784.28;4869604;29;20040;-81
2022/11/10 02:14:19;;;;;;;4.25;2.72;;;;;;;9.34;100.00;100793.88;4877916;29;20490;-84
2022/11/10 02:16:46;;;;;;;5.55;3.00;;;;;;;9.36;100.00;100794.72;4879950;29;20041;-83
2022/11/10 02:19:16;;;;;;;4.85;3.20;;;;;;;9.43;100.00;100796.41;4886381;29;20040;-82
2022/11/10 02:21:43;;;;;;;6.13;3.13;;;;;;;9.42;100.00;100805.22;4855462;29;20055;-82
2022/11/10 02:24:10;;;;;;;8.38;3.13;;;;;;;9.53;100.00;100802.41;4855947;29;20041;-83
2022/11/10 02:26:41;;;;;;;3.78;2.85;;;;;;;9.51;100.00;100798.94;4873729;29;20486;-85
2022/11/10 02:29:07;;;;;;;5.07;3.13;;;;;;;9.54;100.00;100804.16;4879112;29;20091;-84
2022/11/10 02:31:34;;;;;;;6.65;3.08;;;;;;;9.58;100.00;100800.56;4870340;29;20044;-85
2022/11/10 02:34:01;;;;;;;7.78;3.20;;;;;;;9.60;100.00;100806.72;4873416;29;20049;-83
2022/11/10 02:36:27;;;;;;;7.10;3.20;;;;;;;9.60;100.00;100809.34;4895992;29;20056;-82
2022/11/10 02:38:54;;;;;;;5.55;2.90;;;;;;;9.57;100.00;100814.66;4857261;29;20036;-84
2022/11/10 02:41:20;;;;;;;7.50;3.10;;;;;;;9.66;100.00;100818.91;4873490;29;20387;-82
2022/11/10 02:43:47;;;;;;;8.23;3.08;;;;;;;9.58;100.00;100819.03;4894077;29;20072;-83
2022/11/10 02:46:14;;;;;;;7.80;3.25;;;;;;;9.62;100.00;100817.25;4855157;29;20040;-84
2022/11/10 02:48:41;;;;;;;5.95;3.35;;;;;;;9.57;100.00;100820.78;4871129;29;20513;-84
2022/11/10 02:51:07;;;;;;;5.25;3.03;;;;;;;9.47;100.00;100826.22;4885986;29;20132;-85
2022/11/10 02:53:34;;;;;;;6.07;3.40;;;;;;;9.62;100.00;100830.44;4868682;29;20044;-82
2022/11/10 02:56:00;;;;;;;4.82;3.35;;;;;;;9.69;100.00;100830.31;4849992;29;20049;-84
2022/11/10 02:58:27;;;;;;;5.80;3.20;;;;;;;9.67;100.00;100834.75;4879264;29;20056;-84
2022/11/10 03:00:54;;;;;;;5.13;2.90;;;;;;;9.73;100.00;100828.50;4879651;29;20107;-84
2022/11/10 03:03:20;;;;;;;7.60;3.10;;;;;;;9.70;100.00;100829.44;4849654;29;20041;-82
2022/11/10 03:05:48;;;;;;;4.65;2.88;;;;;;;9.64;100.00;100823.34;4863672;29;20484;-83
2022/11/10 03:08:14;;;;;;;3.92;3.08;;;;;;;9.61;100.00;100836.59;4848714;29;20562;-82
2022/11/10 03:10:41;;;;;;;5.53;3.47;;;;;;;9.73;100.00;100836.41;4873099;29;20056;-82
2022/11/10 03:13:07;;;;;;;6.28;4.25;;;;;;;9.72;100.00;100842.59;4864293;29;20059;-83
2022/11/10 03:15:34;;;;;;;7.00;4.10;;;;;;;9.67;100.00;100849.69;4894881;29;20049;-81
2022/11/10 03:18:03;;;;;;;5.25;3.05;;;;;;;9.73;100.00;100846.97;4848579;29;20223;-84
2022/11/10 03:20:30;;;;;;;9.80;3.72;;;;;;;9.73;100.00;100852.25;4863384;29;20044;-84
2022/11/10 03:23:01;;;;;;;4.95;3.15;;;;;;;9.71;100.00;100856.69;4871281;29;20582;-81
2022/11/10 03:25:28;;;;;;;4.40;3.00;;;;;;;9.77;100.00;100860.09;4860227;29;20049;-82
2022/11/10 03:27:55;;;;;;;5.07;3.28;;;;;;;9.68;100.00;100864.66;4844719;29;20459;-81
2022/11/10 03:30:21;;;;;;;6.10;3.53;;;;;;;9.71;100.00;100867.22;4861544;29;20041;-83
2022/11/10 03:32:48;;;;;;;10.38;4.25;;;;;;;9.77;100.00;100875.94;4867251;29;20076;-83
2022/11/10 03:35:15;;;;;;;9.70;4.70;;;;;;;9.83;100.00;100877.59;4866991;29;20639;-82
2022/11/10 03:37:41;;;;;;;7.00;3.17;;;;;;;9.83;100.00;100886.38;4866716;29;20069;-82
2022/11/10 03:40:08;;;;;;;5.65;3.40;;;;;;;9.76;100.00;100884.75;4900092;29;20379;-81
2022/11/10 03:42:35;;;;;;;7.45;3.40;;;;;;;9.80;100.00;100891.72;4871004;29;20558;-81
2022/11/10 03:45:02;;;;;;;6.35;3.42;;;;;;;9.81;100.00;100897.88;4913574;29;20044;-83
2022/11/10 03:47:28;;;;;;;6.22;3.35;;;;;;;9.93;100.00;100889.78;4879756;29;20040;-83
2022/11/10 03:49:55;;;;;;;5.85;3.28;;;;;;;9.87;100.00;100892.50;4874834;29;20104;-80
2022/11/10 03:52:22;;;;;;;7.05;3.03;;;;;;;9.82;100.00;100899.59;4882694;29;20048;-81
2022/11/10 03:54:48;;;;;;;5.88;3.25;;;;;;;9.87;100.00;100895.16;4856846;29;20095;-83
2022/11/10 03:57:15;;;;;;;6.97;3.25;;;;;;;9.86;100.00;100899.56;4874702;29;20048;-84
2022/11/10 03:59:42;;;;;;;7.15;3.40;;;;;;;9.74;100.00;100904.13;4855180;29;20040;-79
2022/11/10 04:02:08;;;;;;;4.60;2.90;;;;;;;9.72;100.00;100911.19;4879351;29;20048;-82
2022/11/10 04:10:08;;;;;;;10.45;3.70;;;;;;;9.72;100.00;100903.28;4866615;29;20100;-81
2022/11/10 04:18:23;;;;;;;5.75;3.20;;;;;;;9.56;100.00;100919.28;4866576;29;20041;-80
2022/11/10 04:20:54;;;;;;;5.63;2.90;;;;;;;9.48;100.00;100926.41;4868661;29;20044;-80
2022/11/10 04:23:25;;;;;;;8.35;3.45;;;;;;;9.57;100.00;100926.31;4866582;29;20040;-80
2022/11/10 04:28:54;;;;;;;4.93;3.30;;;;;;;9.51;100.00;100944.00;4899715;29;20044;-82
2022/11/10 04:31:22;;;;;;;7.38;2.85;;;;;;;9.51;100.00;100936.06;4881486;29;20096;-80
2022/11/10 04:33:49;;;;;;;6.75;2.97;;;;;;;9.38;100.00;100950.28;4895688;29;20045;-82
2022/11/10 04:36:18;;;;;;;5.65;3.15;;;;;;;9.30;100.00;100950.34;4863519;29;20041;-81
2022/11/10 04:38:45;;;;;;;5.35;2.92;;;;;;;9.23;100.00;100952.19;4867911;29;20100;-81
2022/11/10 04:41:12;;;;;;;5.28;2.70;;;;;;;9.29;100.00;100957.41;4867354;29;20052;-81
2022/11/10 04:43:39;;;;;;;4.57;2.67;;;;;;;9.16;100.00;100954.88;4867235;29;20045;-82
2022/11/10 04:46:07;;;;;;;4.43;2.63;;;;;;;9.16;100.00;100961.03;4897020;29;20046;-80
2022/11/10 04:48:34;;;;;;;8.02;3.60;;;;;;;9.10;100.00;100962.88;4851875;29;20414;-81
2022/11/10 04:51:05;;;;;;;7.85;3.25;;;;;;;9.21;100.00;100967.16;4866669;29;20059;-82
2022/11/10 04:53:32;;;;;;;8.13;3.78;;;;;;;9.24;100.00;100968.88;4861046;29;20045;-81
2022/11/10 04:55:59;;;;;;;6.30;3.00;;;;;;;9.20;100.00;100973.31;4887483;29;20430;-81
2022/11/10 04:58:25;;;;;;;7.97;3.78;;;;;;;9.15;100.00;100975.09;4881071;29;20056;-81
2022/11/10 05:00:52;;;;;;;8.98;3.60;;;;;;;9.28;100.00;100978.50;4863345;29;20504;-81
2022/11/10 05:03:19;;;;;;;9.55;3.35;;;;;;;9.18;100.00;100975.09;4876230;29;20423;-80
2022/11/10 05:05:46;;;;;;;7.20;3.47;;;;;;;9.22;100.00;100991.75;4871423;29;20028;-80
2022/11/10 05:08:14;;;;;;;6.10;3.60;;;;;;;9.22;100.00;100995.25;4861957;29;20057;-79
2022/11/10 05:10:41;;;;;;;8.43;4.05;;;;;;;9.21;100.00;100997.91;4860002;29;20577;-79
2022/11/10 05:13:07;;;;;;;7.75;3.42;;;;;;;9.22;100.00;100997.00;4850952;29;20052;-80
2022/11/10 05:15:34;;;;;;;6.90;2.90;;;;;;;9.10;100.00;101002.41;4866639;29;20057;-80
2022/11/10 05:18:01;;;;;;;5.30;3.42;;;;;;;9.06;100.00;101006.81;4896354;29;20057;-80
2022/11/10 05:20:27;;;;;;;6.47;3.47;;;;;;;8.98;100.00;101008.66;4878121;29;20522;-80
2022/11/10 05:25:41;;;;;;;6.38;3.85;;;;;;;9.05;100.00;101020.00;4884055;29;20045;-80
2022/11/10 05:28:09;;;;;;;6.63;3.97;;;;;;;9.01;100.00;101013.91;4881064;29;20554;-78
2022/11/10 05:30:36;;;;;;;6.72;3.78;;;;;;;8.99;100.00;101032.34;4909659;29;20084;-80
2022/11/10 05:33:04;;;;;;;7.32;3.25;;;;;;;9.07;100.00;101029.66;4865702;29;20469;-79
2022/11/10 05:35:31;;;;;;;8.97;3.63;;;;;;;9.00;100.00;101044.66;4866367;29;20104;-80
2022/11/10 05:37:58;;;;;;;9.70;4.03;;;;;;;8.93;100.00;101042.09;4865636;29;20431;-78
2022/11/10 05:40:25;;;;;;;7.30;4.07;;;;;;;8.95;100.00;101048.22;4865084;29;20538;-81
2022/11/10 05:42:52;;;;;;;9.35;3.50;;;;;;;8.96;100.00;101063.13;4849912;29;20049;-79
2022/11/10 05:45:20;;;;;;;5.28;3.35;;;;;;;8.90;100.00;101061.41;4881353;29;20041;-81
2022/11/10 05:47:47;;;;;;;10.57;4.82;;;;;;;8.76;100.00;101068.56;4878906;29;20060;-79
2022/11/10 05:50:15;;;;;;;7.77;4.07;;;;;;;8.72;100.00;101072.94;4897040;29;20076;-79
2022/11/10 05:52:44;;;;;;;6.25;3.20;;;;;;;8.63;100.00;101075.63;4911524;29;20048;-78
2022/11/10 05:55:17;;;;;;;5.00;3.15;;;;;;;8.60;100.00;101082.69;4889611;29;20036;-81
2022/11/10 05:57:45;;;;;;;10.10;3.60;;;;;;;8.65;100.00;101089.66;4911403;29;20040;-79
2022/11/10 06:00:13;;;;;;;5.60;3.58;;;;;;;8.60;100.00;101090.59;4884772;29;20052;-80
2022/11/10 06:02:40;;;;;;;9.75;3.90;;;;;;;8.69;100.00;101095.81;4896392;29;20099;-79
2022/11/10 06:05:07;;;;;;;6.25;3.97;;;;;;;8.66;100.00;101103.72;4865353;29;20048;-79
2022/11/10 06:07:34;;;;;;;7.43;3.63;;;;;;;8.59;100.00;101105.53;4879662;29;20104;-79
2022/11/10 06:10:00;;;;;;;7.95;3.95;;;;;;;8.56;100.00;101108.16;4864795;29;20143;-79
2022/11/10 06:12:30;;;;;;;6.93;3.97;;;;;;;8.57;100.00;101120.44;4880626;29;20049;-79
2022/11/10 06:14:57;;;;;;;7.97;3.83;;;;;;;8.48;100.00;101122.25;4896092;29;20455;-78
2022/11/10 06:17:24;;;;;;;9.63;3.90;;;;;;;8.51;100.00;101124.88;4865289;29;20072;-79
2022/11/10 06:19:51;;;;;;;9.83;4.50;;;;;;;8.31;100.00;101140.72;4865162;29;20045;-79
2022/11/10 06:22:17;;;;;;;8.13;4.07;;;;;;;8.37;100.00;101146.00;4886524;29;20515;-79
2022/11/10 06:24:45;;;;;;;8.98;4.35;;;;;;;8.31;100.00;101152.09;4872841;29;20462;-79
2022/11/10 06:27:12;;;;;;;9.57;4.63;;;;;;;8.41;100.00;101153.88;4856651;29;20041;-81
2022/11/10 06:29:38;;;;;;;7.47;3.47;;;;;;;8.25;100.00;101152.16;4868206;29;20071;-79
2022/11/10 06:32:05;;;;;;;5.87;3.90;;;;;;;8.38;100.00;101163.53;4861454;29;20048;-79
2022/11/10 06:34:32;;;;;;;8.33;4.30;;;;;;;8.38;100.00;101169.69;4878268;29;20113;-78
2022/11/10 06:36:58;;;;;;;13.33;4.23;;;;;;;8.32;100.00;101177.56;4897924;29;20045;-79
2022/11/10 06:39:25;;;;;;;7.50;4.50;;;;;;;8.38;100.00;101177.56;4864111;29;20112;-79
2022/11/10 06:41:51;;;;;;;9.57;4.23;;;;;;;8.34;100.00;101181.06;4865263;29;20071;-78
2022/11/10 06:44:18;;;;;;;6.90;4.33;;;;;;;8.31;100.00;101188.97;4849402;29;20059;-81
2022/11/10 06:46:45;;;;;;;8.10;4.00;;;;;;;8.26;100.00;101190.75;4867248;29;20036;-80
2022/11/10 06:49:11;;;;;;;11.67;5.30;;;;;;;8.28;100.00;101201.28;4884621;29;20052;-79
2022/11/10 06:51:39;;;;;;;12.60;7.00;;;;;;;8.26;100.00;101206.53;4866693;29;20371;-78
2022/11/10 06:54:05;;;;;;;11.50;5.60;;;;;;;8.30;100.00;101212.66;4876142;29;20129;-78
2022/11/10 06:56:32;;;;;;;7.07;4.40;;;;;;;8.41;100.00;101214.44;4874030;29;20049;-79
2022/11/10 06:58:59;;;;;;;8.67;4.80;;;;;;;8.48;100.00;101223.19;4890133;29;20040;-79
2022/11/10 07:01:25;;;;;;;7.40;4.57;;;;;;;8.61;100.00;101234.56;4861210;29;20112;-79
2022/11/10 07:03:52;;;;;;;15.50;5.20;;;;;;;8.69;100.00;101241.56;4863323;29;20045;-79
2022/11/10 07:06:39;;;;;;;8.55;4.60;;;;;;;8.73;100.00;101242.41;4980947;23;20041;-84
2022/11/10 07:09:06;;;;;;;7.15;4.40;;;;;;;8.92;100.00;101256.41;4862140;29;20055;-84
2022/11/10 07:11:33;;;;;;;8.47;4.90;;;;;;;8.84;100.00;101242.41;4859472;29;20506;-85
2022/11/10 07:14:00;;;;;;;7.22;4.07;;;;;;;8.82;100.00;101249.41;4866674;29;20044;-83
2022/11/10 07:16:26;;;;;;;5.85;3.70;;;;;;;8.97;100.00;101252.84;4880663;29;20045;-83
2022/11/10 07:18:53;;;;;;;8.82;5.13;;;;;;;8.97;100.00;101265.16;4881596;29;20071;-83
2022/11/10 07:21:20;;;;;;;6.85;3.80;;;;;;;9.00;100.00;101262.53;4895632;29;20044;-84
2022/11/10 07:23:47;;;;;;;7.95;4.43;;;;;;;8.96;100.00;101260.78;4870527;29;20045;-85
2022/11/10 07:26:13;;;;;;;10.02;4.15;;;;;;;8.98;100.00;101264.28;4862188;29;20033;-84
2022/11/10 07:28:41;;;;;;;7.23;4.33;;;;;;;8.91;100.00;101266.09;4863495;29;20056;-84
2022/11/10 07:31:08;;;;;;;6.35;3.75;;;;;;;8.98;100.00;101269.53;4878583;29;20040;-84
2022/11/10 07:33:34;;;;;;;7.43;4.13;;;;;;;8.88;100.00;101276.63;4864097;29;20041;-85
2022/11/10 07:36:02;;;;;;;12.50;4.15;;;;;;;8.96;100.00;101279.22;4867354;29;20040;-84
2022/11/10 07:38:29;;;;;;;8.63;3.83;;;;;;;8.93;100.00;101273.97;4868231;29;20574;-85
2022/11/10 07:40:55;;;;;;;6.20;3.70;;;;;;;8.95;100.00;101283.63;4865712;29;20052;-84
2022/11/10 07:43:23;;;;;;;10.13;4.03;;;;;;;8.92;100.00;101283.66;4878365;29;20045;-85
2022/11/10 07:45:51;;;;;;;10.57;4.40;;;;;;;8.96;100.00;101295.03;4876776;29;20494;-84
2022/11/10 07:48:18;;;;;;;9.38;4.38;;;;;;;9.06;100.00;101295.88;4895705;29;20044;-84
2022/11/10 07:50:45;;;;;;;7.20;4.68;;;;;;;9.04;100.00;101303.78;4874705;29;20041;-85
2022/11/10 07:53:18;;;;;;;10.40;4.25;;;;;;;9.15;100.00;101312.53;4865383;29;20080;-83
2022/11/10 07:55:46;;;;;;;8.85;4.70;;;;;;;9.20;100.00;101312.50;4863795;29;20041;-85
2022/11/10 07:58:15;;;;;;;12.00;5.22;;;;;;;9.21;100.00;101307.22;4860813;29;20044;-84
2022/11/10 08:00:42;;;;;;;9.52;4.40;;;;;;;9.30;100.00;101312.47;4866088;29;20044;-85
2022/11/10 08:03:10;;;;;;;6.45;3.80;;;;;;;9.17;100.00;101312.53;4882379;29;20132;-84
2022/11/10 08:05:37;;;;;;;7.65;4.63;;;;;;;9.26;100.00;101312.50;4868908;29;20048;-84
2022/11/10 08:08:04;;;;;;;8.75;4.68;;;;;;;9.35;100.00;101316.84;4870221;29;20048;-85
2022/11/10 08:10:32;;;;;;;11.88;5.68;;;;;;;9.45;100.00;101319.41;4883915;29;20058;-85
2022/11/10 08:13:00;;;;;;;9.43;4.60;;;;;;;9.44;100.00;101322.06;4869171;29;20731;-84
2022/11/10 08:15:27;;;;;;;10.30;5.05;;;;;;;9.56;100.00;101330.78;4866429;29;20053;-84
2022/11/10 08:18:15;;;;;;;6.55;4.35;;;;;;;9.52;100.00;101333.47;4866499;29;20049;-83
2022/11/10 08:20:42;;;;;;;10.35;5.55;;;;;;;9.58;100.00;101331.66;4863323;29;20056;-83
2022/11/10 08:23:08;;;;;;;10.93;5.50;;;;;;;9.56;100.00;101335.19;4891659;29;20046;-85
2022/11/10 08:25:36;;;;;;;9.20;4.97;;;;;;;9.64;100.00;101337.78;4854197;29;20041;-85
2022/11/10 08:28:06;;;;;;;8.65;4.70;;;;;;;9.57;100.00;101344.84;4860296;29;20045;-84
2022/11/10 08:30:33;;;;;;;10.02;4.90;;;;;;;9.64;100.00;101350.97;4890178;29;20410;-82
2022/11/10 08:33:01;;;;;;;11.38;5.65;;;;;;;9.68;100.00;101344.81;4882448;29;20049;-84
2022/11/10 08:35:29;;;;;;;10.98;5.40;;;;;;;9.74;100.00;101350.03;4866972;29;20040;-82
2022/11/10 08:37:56;;;;;;;18.30;6.88;;;;;;;9.83;100.00;101356.13;4882153;29;20127;-83
2022/11/10 08:40:26;;;;;;;12.20;5.35;;;;;;;9.90;100.00;101354.31;4889522;29;20043;-83
2022/11/10 08:43:00;;;;;;;10.02;5.78;;;;;;;9.96;100.00;101369.25;4886177;29;20047;-84
2022/11/10 08:45:27;;;;;;;9.10;6.05;;;;;;;10.01;100.00;101373.63;4889794;29;20041;-83
2022/11/10 08:48:02;;;;;;;13.35;6.45;;;;;;;10.18;100.00;101368.22;4876252;29;20099;-85
2022/11/10 08:50:29;;;;;;;12.32;5.72;;;;;;;10.31;100.00;101377.81;4870236;29;20139;-82
2022/11/10 08:52:56;;;;;;;11.15;6.45;;;;;;;10.36;100.00;101383.97;4871372;29;20561;-85
2022/11/10 08:55:22;;;;;;;9.88;5.68;;;;;;;10.44;100.00;101391.81;4891162;29;20489;-83
2022/11/10 08:57:49;;;;;;;8.23;5.60;;;;;;;10.52;100.00;101383.84;4864000;29;20047;-83
2022/11/10 09:00:16;;;;;;;10.15;6.72;;;;;;;10.66;100.00;101390.72;4875179;29;20111;-83
2022/11/10 09:02:43;;;;;;;13.68;5.70;;;;;;;10.70;100.00;101403.03;4866024;29;20542;-84
2022/11/10 09:05:09;;;;;;;10.02;6.43;;;;;;;10.90;100.00;101399.31;4880549;29;20136;-84
2022/11/10 09:07:47;;;;;;;8.63;5.90;;;;;;;10.89;100.00;101405.50;4868185;29;20069;-83
2022/11/10 09:10:14;;;;;;;12.20;6.22;;;;;;;10.92;100.00;101406.34;4869228;29;20053;-84
2022/11/10 09:12:41;;;;;;;13.60;6.10;;;;;;;10.94;100.00;101409.84;4875850;29;20051;-84
2022/11/10 09:15:09;;;;;;;12.25;5.88;;;;;;;10.89;100.00;101410.78;4859849;29;20525;-84
2022/11/10 09:17:37;;;;;;;8.15;5.45;;;;;;;10.88;100.00;101415.19;4880196;29;20516;-84
2022/11/10 09:20:05;;;;;;;9.27;6.20;;;;;;;10.90;100.00;101418.69;4862170;29;20041;-84
2022/11/10 09:22:36;;;;;;;9.63;6.03;;;;;;;10.91;100.00;101428.38;4883660;29;20454;-83
2022/11/10 09:25:03;;;;;;;9.38;5.95;;;;;;;11.06;100.00;101424.72;4884185;29;20048;-83
2022/11/10 09:27:34;;;;;;;11.32;6.40;;;;;;;11.09;100.00;101422.03;4869834;29;20052;-85
2022/11/10 09:30:00;;;;;;;10.98;6.03;;;;;;;11.16;100.00;101438.72;4886248;29;20040;-85
2022/11/10 09:32:27;;;;;;;12.73;6.80;;;;;;;11.23;100.00;101441.28;4869819;29;20072;-83
2022/11/10 09:34:54;;;;;;;9.80;5.63;;;;;;;11.39;100.00;101441.13;4869812;29;20549;-85
2022/11/10 09:37:20;;;;;;;10.00;6.15;;;;;;;11.45;100.00;101449.00;4885874;29;20417;-84
2022/11/10 09:39:48;;;;;;;12.48;6.45;;;;;;;11.61;100.00;101450.56;4868898;29;20473;-84
2022/11/10 09:42:47;;;;;;;12.75;6.97;;;;;;;11.78;100.00;101450.34;4868252;29;20044;-84
2022/11/10 09:45:24;;;;;;;11.55;5.82;;;;;;;11.81;100.00;101451.22;4880233;29;20048;-83
2022/11/10 09:48:06;;;;;;;14.32;6.45;;;;;;;11.97;100.00;101458.97;4869650;29;20055;-84
2022/11/10 09:50:43;;;;;;;9.70;6.15;;;;;;;12.05;100.00;101451.78;4870117;29;20052;-82
2022/11/10 09:53:16;;;;;;;10.25;5.43;;;;;;;12.19;100.00;101457.78;4869712;29;20048;-84
2022/11/10 09:55:45;;;;;;;10.98;6.40;;;;;;;12.17;100.00;101462.19;4880975;29;20040;-83
2022/11/10 09:58:13;;;;;;;12.48;6.32;;;;;;;12.14;100.00;101456.94;4882302;29;20075;-83
2022/11/10 10:00:41;;;;;;;12.85;6.50;;;;;;;12.16;100.00;101462.22;4865453;29;20044;-83
2022/11/10 10:03:13;;;;;;;10.68;6.60;;;;;;;12.23;100.00;101462.13;4875785;29;20088;-80
2022/11/10 10:05:52;;;;;;;15.88;6.18;;;;;;;12.26;100.00;101463.84;4852027;29;20040;-83
2022/11/10 10:08:28;;;;;;;9.63;6.55;;;;;;;12.43;100.00;101463.59;4866151;29;20462;-83
2022/11/10 10:11:29;;;;;;;7.60;5.55;;;;;;;12.57;100.00;101462.47;4878615;29;20576;-83
2022/11/10 10:14:20;;;;;;;9.45;5.68;;;;;;;12.60;100.00;101458.88;4883890;29;20051;-82
2022/11/10 10:17:16;;;;;;;16.30;6.88;;;;;;;12.73;100.00;101463.09;4877808;29;20036;-82
2022/11/10 10:19:57;;;;;;;11.63;5.50;;;;;;;12.90;100.00;101455.75;4883193;29;20051;-84
2022/11/10 10:22:33;;;;;;;9.15;5.50;;;;;;;13.12;100.00;101456.25;4871064;29;20052;-84
2022/11/10 10:25:02;;;;;;;10.65;5.50;;;;;;;13.31;100.00;101461.25;4881628;29;20067;-83
2022/11/10 10:27:30;;;;;;;10.93;5.72;;;;;;;13.49;100.00;101458.22;4869321;29;20070;-82
2022/11/10 10:29:57;;;;;;;11.32;5.82;;;;;;;13.60;100.00;101458.00;4868370;29;20044;-84
2022/11/10 10:32:25;;;;;;;7.97;4.72;;;;;;;13.78;100.00;101469.13;4887864;29;20044;-83
2022/11/10 10:34:51;;;;;;;10.45;5.15;;;;;;;13.65;100.00;101469.41;4885848;29;20048;-83
2022/11/10 10:37:28;;;;;;;10.63;5.63;;;;;;;13.50;100.00;101479.44;4878575;29;20043;-83
2022/11/10 10:39:55;;;;;;;12.00;5.43;;;;;;;13.47;100.00;101473.31;4867221;29;20044;-82
2022/11/10 10:42:31;;;;;;;7.45;5.25;;;;;;;13.36;100.00;101480.59;4882018;29;20048;-83
2022/11/10 10:45:18;;;;;;;8.23;5.47;;;;;;;13.23;100.00;101478.19;4883322;29;20043;-82
2022/11/10 10:47:46;;;;;;;11.18;5.25;;;;;;;13.40;100.00;101477.84;4896950;29;20044;-83
2022/11/10 10:50:31;;;;;;;8.10;4.82;;;;;;;13.35;100.00;101486.81;4881663;29;20060;-85
2022/11/10 10:53:12;;;;;;;12.98;5.10;;;;;;;13.19;100.00;101483.53;4871539;29;20053;-84
2022/11/10 10:55:48;;;;;;;10.27;4.60;;;;;;;13.18;100.00;101493.25;4862877;29;20049;-83
2022/11/10 10:58:21;;;;;;;8.68;5.00;;;;;;;13.27;100.00;101489.59;4855307;29;20100;-84
2022/11/10 11:01:05;;;;;;;9.38;4.70;;;;;;;13.44;100.00;101482.19;4865301;29;20044;-83
2022/11/10 11:03:46;;;;;;;9.65;4.90;;;;;;;13.42;100.00;101484.00;4865697;29;20586;-83
2022/11/10 11:06:15;;;;;;;10.77;5.00;;;;;;;13.30;100.00;101486.91;4869029;29;20044;-83
2022/11/10 11:08:55;;;;;;;13.98;4.97;;;;;;;13.26;100.00;101490.50;4894051;29;20044;-84
2022/11/10 11:11:34;;;;;;;8.32;5.15;;;;;;;13.14;100.00;101496.88;4876009;29;20108;-84
2022/11/10 11:14:21;;;;;;;9.32;5.22;;;;;;;12.93;100.00;101497.25;4856411;29;20048;-85
2022/11/10 11:17:00;;;;;;;8.35;5.35;;;;;;;12.79;100.00;101512.53;4863357;29;20051;-81
2022/11/10 11:19:30;;;;;;;10.95;5.40;;;;;;;12.65;100.00;101502.13;4865193;29;20048;-83
2022/11/10 11:22:19;;;;;;;8.65;5.20;;;;;;;12.55;100.00;101503.16;4877231;29;20036;-84
2022/11/10 11:25:16;;;;;;;8.82;5.65;;;;;;;12.65;100.00;101503.00;4883373;29;20044;-82
2022/11/10 11:28:31;;;;;;;10.75;5.80;;;;;;;12.73;100.00;101515.25;4881014;29;20395;-80
2022/11/10 11:31:10;;;;;;;10.52;5.90;;;;;;;12.82;100.00;101499.19;4871209;29;20060;-82
2022/11/10 11:33:43;;;;;;;10.32;6.10;;;;;;;12.92;100.00;101506.97;4863468;29;20052;-83
2022/11/10 11:36:37;;;;;;;10.23;4.93;;;;;;;12.92;100.00;101501.66;4867193;29;20055;-82
2022/11/10 11:39:14;;;;;;;9.30;5.13;;;;;;;12.90;100.00;101507.91;4898992;29;20052;-84
2022/11/10 11:41:53;;;;;;;10.88;5.88;;;;;;;12.97;100.00;101506.91;4863227;29;20092;-83
2022/11/10 11:44:39;;;;;;;8.68;4.53;;;;;;;13.04;100.00;101505.03;4895034;29;20091;-82
2022/11/10 11:47:43;;;;;;;8.95;5.18;;;;;;;13.05;100.00;101504.13;4883697;29;20044;-82
2022/11/10 11:50:35;;;;;;;10.13;5.60;;;;;;;13.26;100.00;101508.19;4882507;29;20414;-82
2022/11/10 11:53:11;;;;;;;8.20;5.10;;;;;;;13.43;100.00;101498.16;4885086;29;20056;-82